Time;durP1;ratioP1;P1;durP2;ratioP2;P2;SDS_P1;SDS_P2;PMS_P1;PMS_P2;Temp;Humidity;BMP_temperature;BMP_pressure;BME280_temperature;BME280_humidity;BME280_pressure;Samples;Min_cycle;Max_cycle;Signal;HPM_P1;HPM_P2
2023/07/03 00:00:06;;;;;;;20.38;18.23;;;;;;;20.15;57.84;93554.25;5052330;28;20047;-73
2023/07/03 00:02:32;;;;;;;19.90;17.90;;;;;;;20.05;57.69;93552.28;5047388;28;20047;-73
2023/07/03 00:04:57;;;;;;;18.17;16.35;;;;;;;19.99;58.29;93559.22;5052258;28;20032;-73
2023/07/03 00:07:23;;;;;;;20.05;17.95;;;;;;;20.00;57.60;93514.88;5053855;28;20058;-72
2023/07/03 00:09:48;;;;;;;19.65;17.60;;;;;;;20.08;57.99;93562.34;5046715;28;20056;-72
2023/07/03 00:12:13;;;;;;;20.17;18.08;;;;;;;20.00;57.99;93544.56;5053658;28;20051;-73
2023/07/03 00:14:39;;;;;;;18.27;16.40;;;;;;;20.07;57.76;93544.59;5054998;28;20040;-72
2023/07/03 00:17:07;;;;;;;18.92;16.95;;;;;;;20.11;57.47;93556.19;5054102;28;20063;-72
2023/07/03 00:19:33;;;;;;;20.23;17.70;;;;;;;20.10;57.64;93546.53;5052898;28;20032;-72
2023/07/03 00:22:01;;;;;;;19.63;17.58;;;;;;;20.15;57.58;93556.97;5054130;28;20070;-73
2023/07/03 00:24:28;;;;;;;19.08;17.08;;;;;;;20.11;57.73;93548.06;5051826;28;20482;-73
2023/07/03 00:26:57;;;;;;;21.15;16.63;;;;;;;20.16;57.70;93550.41;5054487;28;20123;-73
2023/07/03 00:29:23;;;;;;;19.42;16.80;;;;;;;20.17;57.35;93533.88;5052111;28;20048;-72
2023/07/03 00:31:49;;;;;;;20.23;18.27;;;;;;;20.14;57.46;93560.84;5053837;28;20024;-72
2023/07/03 00:34:15;;;;;;;18.88;16.85;;;;;;;20.12;57.62;93557.72;5055037;28;20048;-72
2023/07/03 00:36:41;;;;;;;19.50;17.33;;;;;;;20.27;57.13;93564.00;5052035;28;20056;-73
2023/07/03 00:39:07;;;;;;;20.63;18.25;;;;;;;20.25;57.31;93572.47;5046946;28;20700;-72
2023/07/03 00:41:34;;;;;;;20.15;18.08;;;;;;;20.07;58.23;93566.19;5052598;28;20060;-73
2023/07/03 00:43:59;;;;;;;20.63;17.33;;;;;;;20.04;58.06;93558.88;5053452;28;20037;-72
2023/07/03 00:46:25;;;;;;;17.70;15.90;;;;;;;20.03;58.37;93570.81;5055318;28;20070;-73
2023/07/03 00:48:50;;;;;;;20.83;17.15;;;;;;;20.02;58.31;93566.56;5053120;28;20512;-72
2023/07/03 00:51:17;;;;;;;19.30;17.40;;;;;;;20.07;58.48;93574.28;5053457;28;20114;-72
2023/07/03 00:53:43;;;;;;;18.80;16.90;;;;;;;20.01;58.13;93563.06;5049476;28;20162;-73
2023/07/03 00:56:08;;;;;;;18.27;16.48;;;;;;;20.02;58.49;93566.56;5053718;28;20622;-73
2023/07/03 00:58:34;;;;;;;17.95;16.15;;;;;;;20.05;58.38;93552.28;5053639;28;20029;-72
2023/07/03 01:01:10;;;;;;;19.88;17.42;;;;;;;20.00;58.45;93558.03;5053115;28;20064;-72
2023/07/03 01:03:41;;;;;;;19.58;17.48;;;;;;;20.03;58.15;93576.19;5053827;28;20043;-73
2023/07/03 01:06:12;;;;;;;18.77;16.88;;;;;;;19.79;59.38;93580.31;5053934;28;20027;-72
2023/07/03 01:08:39;;;;;;;18.80;16.90;;;;;;;19.49;60.58;93575.09;5051122;28;20042;-72
2023/07/03 01:11:06;;;;;;;20.45;18.33;;;;;;;19.69;59.99;93573.69;5052073;28;20037;-72
2023/07/03 01:13:33;;;;;;;22.92;18.75;;;;;;;19.68;60.04;93564.06;5054869;28;20539;-71
2023/07/03 01:16:00;;;;;;;20.48;18.38;;;;;;;19.69;59.63;93567.53;5067076;28;20377;-72
2023/07/03 01:18:27;;;;;;;19.80;17.70;;;;;;;19.48;60.56;93570.84;5053909;28;20037;-73
2023/07/03 01:21:21;;;;;;;21.73;19.33;;;;;;;19.57;60.48;93563.22;5050081;28;20033;-72
2023/07/03 01:23:58;;;;;;;23.10;18.90;;;;;;;19.51;60.05;93553.13;5051087;28;20124;-72
2023/07/03 01:26:26;;;;;;;21.85;19.60;;;;;;;19.51;59.86;93551.22;5053266;28;20119;-72
2023/07/03 01:28:59;;;;;;;21.33;19.02;;;;;;;19.43;60.21;93571.16;5052814;28;20025;-72
2023/07/03 01:31:29;;;;;;;22.25;19.23;;;;;;;19.31;60.67;93564.13;5053504;28;20328;-72
2023/07/03 01:33:57;;;;;;;21.00;18.65;;;;;;;19.15;61.09;93560.19;5045580;28;20697;-73
2023/07/03 01:36:24;;;;;;;22.20;19.90;;;;;;;19.28;60.82;93564.91;5053339;28;20037;-72
2023/07/03 01:38:51;;;;;;;22.95;20.50;;;;;;;19.42;60.28;93572.31;5053410;28;20032;-72
2023/07/03 01:41:17;;;;;;;23.10;20.63;;;;;;;19.48;59.83;93572.78;5051242;28;20397;-73
2023/07/03 01:43:45;;;;;;;22.20;18.35;;;;;;;19.14;60.72;93558.63;5053628;28;20024;-72
2023/07/03 01:46:11;;;;;;;22.13;19.77;;;;;;;19.15;61.11;93554.78;5051318;28;20013;-73
2023/07/03 01:48:36;;;;;;;22.45;20.05;;;;;;;19.31;60.69;93563.38;5052104;28;20047;-73
2023/07/03 01:51:03;;;;;;;22.08;18.65;;;;;;;19.32;60.69;93570.31;5052085;28;20393;-72
2023/07/03 01:53:32;;;;;;;22.13;19.83;;;;;;;19.46;60.27;93564.28;5051871;28;20569;-73
2023/07/03 01:56:08;;;;;;;24.70;20.27;;;;;;;19.47;60.00;93565.81;5050697;28;20040;-72
2023/07/03 01:58:39;;;;;;;23.65;20.45;;;;;;;19.57;59.44;93571.28;5050808;28;20419;-72
2023/07/03 02:01:10;;;;;;;20.60;18.33;;;;;;;19.64;59.10;93571.34;5051486;28;20048;-73
2023/07/03 02:03:43;;;;;;;23.95;21.35;;;;;;;19.66;59.57;93579.84;5051491;28;20032;-72
2023/07/03 02:06:23;;;;;;;20.77;18.55;;;;;;;19.55;59.93;93562.81;5053625;28;20535;-73
2023/07/03 02:08:50;;;;;;;22.08;18.70;;;;;;;19.54;60.78;93585.53;5052998;28;20040;-72
2023/07/03 02:11:18;;;;;;;20.77;18.55;;;;;;;19.56;60.92;93579.75;5049292;28;20057;-72
2023/07/03 02:13:44;;;;;;;21.17;17.40;;;;;;;19.52;61.27;93574.34;5050222;28;20037;-72
2023/07/03 02:16:09;;;;;;;20.10;17.98;;;;;;;19.59;61.13;93574.41;5052090;28;20036;-72
2023/07/03 02:18:35;;;;;;;19.90;17.80;;;;;;;19.74;60.56;93581.44;5052598;28;20139;-72
2023/07/03 02:21:00;;;;;;;17.90;15.93;;;;;;;19.60;60.74;93567.84;5051394;28;20135;-72
2023/07/03 02:23:26;;;;;;;19.80;16.63;;;;;;;19.63;60.44;93580.59;5052714;28;20040;-73
2023/07/03 02:25:52;;;;;;;19.02;16.88;;;;;;;19.67;60.53;93591.41;5052289;28;20020;-73
2023/07/03 02:28:18;;;;;;;18.92;16.70;;;;;;;19.71;60.74;93587.56;5051473;28;20048;-73
2023/07/03 02:30:43;;;;;;;17.67;15.82;;;;;;;19.75;60.50;93593.75;5049631;28;20036;-72
2023/07/03 02:33:09;;;;;;;19.17;16.50;;;;;;;19.84;60.05;93595.38;5052386;28;20024;-72
2023/07/03 02:35:35;;;;;;;18.85;16.85;;;;;;;19.71;60.45;93598.38;5051666;28;20579;-73
2023/07/03 02:38:01;;;;;;;17.95;16.05;;;;;;;19.71;60.84;93606.47;5051780;28;20036;-72
2023/07/03 02:40:26;;;;;;;18.13;16.20;;;;;;;19.61;60.91;93592.91;5051719;28;20582;-72
2023/07/03 02:42:51;;;;;;;20.13;17.52;;;;;;;19.61;61.32;93612.56;5051318;28;20035;-73
2023/07/03 02:45:18;;;;;;;18.65;16.45;;;;;;;19.56;61.17;93585.94;5049675;28;20618;-72
2023/07/03 02:47:43;;;;;;;18.48;16.30;;;;;;;19.70;61.10;93607.59;5051783;28;20032;-72
2023/07/03 02:50:09;;;;;;;17.75;15.85;;;;;;;19.66;61.33;93606.03;5050508;28;20052;-72
2023/07/03 02:52:34;;;;;;;19.60;17.48;;;;;;;19.58;61.74;93602.53;5051628;28;20036;-72
2023/07/03 02:55:00;;;;;;;19.85;17.02;;;;;;;19.61;61.57;93604.47;5051104;28;20041;-73
2023/07/03 02:57:25;;;;;;;19.70;17.23;;;;;;;19.55;61.84;93605.97;5051470;28;20360;-73
2023/07/03 02:59:51;;;;;;;20.30;18.13;;;;;;;19.51;61.46;93591.66;5050739;28;20500;-73
2023/07/03 03:02:17;;;;;;;18.67;16.38;;;;;;;19.66;61.76;93612.22;5044311;28;20077;-72
2023/07/03 03:04:45;;;;;;;19.17;17.27;;;;;;;19.64;61.24;93601.03;5050459;28;20037;-72
2023/07/03 03:07:11;;;;;;;20.83;18.38;;;;;;;19.51;61.68;93607.84;5046106;28;20493;-72
2023/07/03 03:09:36;;;;;;;19.08;17.05;;;;;;;19.37;62.17;93591.53;5049765;28;20073;-72
2023/07/03 03:12:02;;;;;;;20.65;18.08;;;;;;;19.49;61.56;93596.69;5049435;28;20400;-72
2023/07/03 03:14:27;;;;;;;20.42;17.17;;;;;;;19.65;61.34;93616.03;5052538;28;20032;-72
2023/07/03 03:16:53;;;;;;;19.98;17.85;;;;;;;19.70;61.10;93602.22;5050239;28;20106;-73
2023/07/03 03:19:18;;;;;;;19.30;16.65;;;;;;;19.55;60.96;93600.59;5051105;28;20028;-73
2023/07/03 03:21:44;;;;;;;20.98;17.75;;;;;;;19.45;61.01;93585.09;5049851;28;20033;-72
2023/07/03 03:24:09;;;;;;;19.98;17.88;;;;;;;19.78;60.92;93613.84;5051553;28;20028;-72
2023/07/03 03:26:35;;;;;;;20.40;18.15;;;;;;;19.69;61.24;93621.50;5050605;28;20116;-72
2023/07/03 03:29:01;;;;;;;20.92;17.70;;;;;;;19.71;61.10;93617.25;5054769;28;20043;-72
2023/07/03 03:31:26;;;;;;;19.17;17.05;;;;;;;19.57;61.94;93614.47;5057597;28;20489;-72
2023/07/03 03:33:51;;;;;;;21.60;19.27;;;;;;;19.48;62.23;93614.00;5048118;28;20115;-72
2023/07/03 03:36:17;;;;;;;21.38;17.25;;;;;;;19.60;62.13;93624.50;5054878;28;20342;-72
2023/07/03 03:38:42;;;;;;;20.50;17.80;;;;;;;19.42;62.62;93623.56;5053100;28;20039;-72
2023/07/03 03:41:08;;;;;;;19.58;16.83;;;;;;;19.40;63.27;93625.88;5055347;28;20055;-72
2023/07/03 03:43:34;;;;;;;20.38;18.15;;;;;;;19.31;63.40;93622.72;5056045;28;20150;-72
2023/07/03 03:46:01;;;;;;;20.95;18.48;;;;;;;19.19;63.47;93610.28;5054691;28;20404;-73
2023/07/03 03:48:29;;;;;;;21.85;19.00;;;;;;;19.30;63.59;93623.84;5055323;28;20099;-72
2023/07/03 03:50:55;;;;;;;20.60;18.40;;;;;;;19.49;62.75;93629.03;5053980;28;20059;-72
2023/07/03 03:53:21;;;;;;;20.10;17.75;;;;;;;19.39;63.16;93616.22;5053846;28;20037;-73
2023/07/03 03:55:51;;;;;;;19.30;17.30;;;;;;;19.50;63.29;93637.91;5053503;28;20032;-72
2023/07/03 03:58:18;;;;;;;19.60;16.88;;;;;;;19.40;63.39;93627.78;5053575;28;20630;-73
2023/07/03 04:00:44;;;;;;;20.90;18.38;;;;;;;19.36;63.52;93635.06;5054326;28;20075;-72
2023/07/03 04:03:09;;;;;;;21.35;18.20;;;;;;;19.35;63.77;93644.31;5054666;28;20453;-72
2023/07/03 04:05:35;;;;;;;19.88;17.40;;;;;;;19.08;65.01;93646.34;5054635;28;20227;-72
2023/07/03 04:08:01;;;;;;;19.58;17.48;;;;;;;19.07;65.51;93644.78;5053331;28;20048;-72
2023/07/03 04:10:26;;;;;;;19.90;17.15;;;;;;;18.96;65.38;93641.25;5055447;28;20025;-72
2023/07/03 04:12:52;;;;;;;20.38;17.70;;;;;;;19.04;65.88;93656.31;5047494;28;20032;-72
2023/07/03 04:15:17;;;;;;;21.63;17.98;;;;;;;18.95;66.07;93648.53;5052138;28;20389;-72
2023/07/03 04:17:43;;;;;;;20.67;18.33;;;;;;;19.04;65.57;93642.84;5053344;28;20932;-73
2023/07/03 04:20:13;;;;;;;19.15;16.95;;;;;;;18.85;66.07;93644.59;5054375;28;20036;-72
2023/07/03 04:22:42;;;;;;;23.27;18.85;;;;;;;19.02;65.76;93653.25;5051134;28;20064;-72
2023/07/03 04:25:09;;;;;;;20.45;18.25;;;;;;;19.05;66.10;93665.97;5055267;28;20451;-72
2023/07/03 04:27:35;;;;;;;22.88;18.38;;;;;;;19.03;65.57;93652.06;5052781;28;20399;-72
2023/07/03 04:30:02;;;;;;;21.20;19.00;;;;;;;19.04;65.82;93667.09;5055395;28;20039;-72
2023/07/03 04:32:28;;;;;;;20.52;18.05;;;;;;;19.18;65.52;93664.56;5053356;28;20230;-72
2023/07/03 04:34:53;;;;;;;19.75;17.63;;;;;;;19.08;65.64;93657.91;5053573;28;20995;-73
2023/07/03 04:37:19;;;;;;;17.65;15.77;;;;;;;19.11;66.00;93653.72;5052185;28;20024;-73
2023/07/03 04:39:44;;;;;;;21.33;17.75;;;;;;;19.17;65.38;93663.00;5054602;28;20043;-72
2023/07/03 04:42:13;;;;;;;19.90;17.10;;;;;;;19.36;65.01;93673.56;5053363;28;20039;-73
2023/07/03 04:44:39;;;;;;;19.30;16.85;;;;;;;19.42;64.18;93664.00;5054577;28;20042;-72
2023/07/03 04:47:06;;;;;;;18.55;16.15;;;;;;;19.28;64.33;93659.25;5053219;28;20618;-72
2023/07/03 04:49:32;;;;;;;21.33;16.77;;;;;;;19.18;64.88;93675.34;5053450;28;20028;-73
2023/07/03 04:51:58;;;;;;;19.52;16.55;;;;;;;19.35;64.77;93672.03;5052584;28;20590;-73
2023/07/03 04:54:27;;;;;;;17.92;15.75;;;;;;;19.33;64.38;93666.22;5051383;28;20492;-73
2023/07/03 04:56:53;;;;;;;17.70;15.85;;;;;;;19.35;63.93;93677.44;5054109;28;20468;-72
2023/07/03 04:59:18;;;;;;;19.02;17.00;;;;;;;19.42;64.58;93674.78;5045875;28;20178;-72
2023/07/03 05:01:44;;;;;;;20.45;16.52;;;;;;;19.52;64.38;93687.63;5052008;28;20036;-73
2023/07/03 05:04:10;;;;;;;19.30;16.45;;;;;;;19.63;64.60;93685.81;5053794;28;20503;-73
2023/07/03 05:06:36;;;;;;;18.00;15.35;;;;;;;19.71;64.05;93684.69;5052039;28;20516;-73
2023/07/03 05:09:02;;;;;;;18.05;15.63;;;;;;;19.72;63.33;93680.88;5053327;28;20062;-73
2023/07/03 05:11:29;;;;;;;18.15;14.90;;;;;;;19.86;63.50;93684.81;5051000;28;20041;-73
2023/07/03 05:13:55;;;;;;;18.00;16.20;;;;;;;19.97;63.37;93699.16;5053627;28;20458;-73
2023/07/03 05:16:21;;;;;;;19.25;15.68;;;;;;;19.82;63.01;93689.41;5052783;28;20039;-72
2023/07/03 05:18:46;;;;;;;16.65;14.85;;;;;;;19.80;63.06;93683.63;5053458;28;20544;-73
2023/07/03 05:21:11;;;;;;;18.00;16.20;;;;;;;19.72;63.42;93691.66;5052860;28;20515;-73
2023/07/03 05:23:37;;;;;;;18.88;16.02;;;;;;;19.71;64.17;93684.69;5051082;28;20064;-73
2023/07/03 05:26:03;;;;;;;17.48;14.93;;;;;;;19.79;63.91;93682.84;5052291;28;20032;-73
2023/07/03 05:28:30;;;;;;;16.67;15.05;;;;;;;19.81;64.58;93690.56;5053312;28;20107;-73
2023/07/03 05:30:57;;;;;;;18.70;15.43;;;;;;;19.90;64.02;93691.78;5052154;28;20259;-73
2023/07/03 05:33:24;;;;;;;17.38;15.25;;;;;;;20.09;64.34;93698.88;5053811;28;20033;-73
2023/07/03 05:35:49;;;;;;;17.65;15.43;;;;;;;20.00;62.94;93687.59;5052131;28;20512;-73
2023/07/03 05:38:15;;;;;;;17.25;14.45;;;;;;;20.15;63.99;93697.34;5050583;28;20051;-73
2023/07/03 05:40:40;;;;;;;18.17;15.68;;;;;;;20.24;63.20;93684.31;5052811;28;20078;-70
2023/07/03 05:43:06;;;;;;;17.00;15.25;;;;;;;20.34;61.95;93691.72;5052715;28;20459;-73
2023/07/03 05:45:31;;;;;;;19.17;14.57;;;;;;;20.31;62.09;93697.09;5052529;28;20036;-71
2023/07/03 05:47:57;;;;;;;18.92;16.23;;;;;;;20.26;63.08;93711.75;5051774;28;20029;-73
2023/07/03 05:50:22;;;;;;;18.63;15.07;;;;;;;20.31;63.42;93710.59;5052795;28;20037;-72
2023/07/03 05:52:48;;;;;;;23.27;15.57;;;;;;;20.41;62.85;93699.09;5051591;28;20055;-73
2023/07/03 05:55:14;;;;;;;18.23;16.33;;;;;;;20.47;62.43;93706.47;5051039;28;20047;-73
2023/07/03 05:57:39;;;;;;;22.88;14.90;;;;;;;20.44;62.67;93707.22;5051420;28;20516;-73
2023/07/03 06:00:13;;;;;;;18.15;16.05;;;;;;;20.41;61.92;93707.97;5048907;28;20037;-72
2023/07/03 06:02:40;;;;;;;17.88;14.65;;;;;;;20.35;62.32;93706.78;5051172;28;20044;-73
2023/07/03 06:05:06;;;;;;;18.23;14.95;;;;;;;20.49;62.07;93714.19;5051843;28;20060;-73
2023/07/03 06:07:31;;;;;;;16.45;14.73;;;;;;;20.51;62.13;93701.84;5051823;28;20651;-73
2023/07/03 06:09:57;;;;;;;16.05;14.45;;;;;;;20.57;62.71;93694.94;5051545;28;20044;-73
2023/07/03 06:12:25;;;;;;;15.70;14.05;;;;;;;20.71;61.44;93699.63;5051790;28;20087;-73
2023/07/03 06:14:50;;;;;;;16.58;14.77;;;;;;;20.82;60.87;93707.78;5051145;28;20634;-73
2023/07/03 06:17:16;;;;;;;18.02;15.13;;;;;;;20.50;61.88;93702.22;5053545;28;20036;-73
2023/07/03 06:19:41;;;;;;;19.27;15.70;;;;;;;20.54;61.80;93679.47;5050700;28;20029;-72
2023/07/03 06:22:07;;;;;;;16.58;13.98;;;;;;;20.72;60.77;93708.53;5054087;28;20524;-73
2023/07/03 06:24:32;;;;;;;16.95;13.95;;;;;;;20.67;61.83;93703.47;5050643;28;20539;-73
2023/07/03 06:26:58;;;;;;;16.80;14.57;;;;;;;20.75;60.22;93700.41;5050336;28;20186;-73
2023/07/03 06:29:23;;;;;;;15.73;14.07;;;;;;;20.49;60.46;93692.56;5051918;28;20037;-73
2023/07/03 06:31:51;;;;;;;16.45;13.80;;;;;;;20.49;61.69;93708.78;5050895;28;20021;-72
2023/07/03 06:34:16;;;;;;;15.15;13.50;;;;;;;20.51;62.05;93704.56;5051710;28;20024;-72
2023/07/03 06:36:42;;;;;;;16.63;14.55;;;;;;;20.72;61.99;93697.72;5050133;28;20043;-72
2023/07/03 06:39:09;;;;;;;17.83;14.68;;;;;;;20.93;62.57;93708.63;5053107;28;20558;-72
2023/07/03 06:41:35;;;;;;;17.48;14.55;;;;;;;21.08;61.19;93707.50;5051392;28;20037;-73
2023/07/03 06:44:01;;;;;;;17.17;13.98;;;;;;;21.23;60.01;93703.69;5048832;28;20479;-72
2023/07/03 06:46:26;;;;;;;20.00;15.25;;;;;;;20.96;60.33;93702.47;5054057;28;20111;-72
2023/07/03 06:48:55;;;;;;;15.73;14.05;;;;;;;20.90;61.91;93706.69;5051065;28;20508;-72
2023/07/03 06:51:21;;;;;;;17.45;14.85;;;;;;;20.78;61.86;93715.09;5052584;28;20617;-72
2023/07/03 06:53:46;;;;;;;17.48;14.57;;;;;;;20.72;62.83;93705.81;5051126;28;20038;-72
2023/07/03 06:56:11;;;;;;;18.58;14.93;;;;;;;20.55;63.16;93710.75;5051625;28;20074;-72
2023/07/03 06:58:37;;;;;;;18.25;14.40;;;;;;;20.31;63.69;93697.09;5050700;28;20357;-72
2023/07/03 07:01:12;;;;;;;16.90;14.32;;;;;;;20.10;63.77;93685.00;5051563;28;20024;-72
2023/07/03 07:03:38;;;;;;;16.05;14.40;;;;;;;20.63;63.09;93718.91;5049071;28;20041;-72
2023/07/03 07:06:25;;;;;;;17.75;14.95;;;;;;;20.66;63.78;93710.03;5051342;28;20514;-72
2023/07/03 07:08:52;;;;;;;22.27;14.88;;;;;;;20.78;62.36;93712.38;5051673;28;20048;-72
2023/07/03 07:11:20;;;;;;;16.58;14.38;;;;;;;20.93;60.82;93711.31;5050028;28;20032;-73
2023/07/03 07:13:48;;;;;;;18.77;14.75;;;;;;;20.97;61.15;93701.31;5052489;28;20024;-73
2023/07/03 07:16:17;;;;;;;16.80;12.43;;;;;;;20.86;59.29;93703.19;5052442;28;20036;-73
2023/07/03 07:18:45;;;;;;;13.18;11.85;;;;;;;20.88;58.46;93708.97;5049920;28;20500;-72
2023/07/03 07:21:10;;;;;;;18.50;12.23;;;;;;;20.80;59.27;93688.47;5050532;28;20052;-72
2023/07/03 07:23:35;;;;;;;14.98;12.68;;;;;;;21.04;60.03;93714.84;5051166;28;20036;-72
2023/07/03 07:26:01;;;;;;;15.05;11.55;;;;;;;20.85;58.68;93688.88;5048236;28;20788;-72
2023/07/03 07:28:26;;;;;;;12.88;11.02;;;;;;;21.05;58.40;93711.00;5052179;28;20021;-72
2023/07/03 07:30:52;;;;;;;14.40;11.57;;;;;;;20.99;59.58;93707.09;5050444;28;20041;-72
2023/07/03 07:33:17;;;;;;;23.73;13.18;;;;;;;21.00;58.59;93697.84;5051612;28;20239;-72
2023/07/03 07:35:46;;;;;;;18.73;12.10;;;;;;;20.97;58.73;93707.47;5048704;28;20404;-72
2023/07/03 07:38:13;;;;;;;14.60;13.13;;;;;;;21.05;59.49;93721.03;5051394;28;20032;-72
2023/07/03 07:40:39;;;;;;;15.57;10.73;;;;;;;21.11;58.50;93724.91;5046228;28;20541;-72
2023/07/03 07:43:05;;;;;;;15.27;12.18;;;;;;;21.17;58.92;93723.41;5052028;28;20024;-72
2023/07/03 07:45:31;;;;;;;12.50;10.98;;;;;;;21.07;59.26;93708.66;5050615;28;20033;-72
2023/07/03 07:47:56;;;;;;;16.38;12.90;;;;;;;21.30;61.44;93732.69;5065817;28;20069;-72
2023/07/03 07:50:23;;;;;;;13.45;11.68;;;;;;;21.42;60.02;93719.59;5050709;28;20036;-72
2023/07/03 07:52:49;;;;;;;16.33;12.15;;;;;;;21.16;58.74;93684.00;5050927;28;20024;-72
2023/07/03 07:55:15;;;;;;;13.32;9.93;;;;;;;21.42;55.48;93729.63;5050477;28;20484;-73
2023/07/03 07:57:40;;;;;;;13.70;11.48;;;;;;;21.54;57.33;93721.16;5050525;28;20113;-72
2023/07/03 08:00:06;;;;;;;12.25;11.05;;;;;;;21.70;57.09;93735.13;5049006;28;20734;-72
2023/07/03 08:02:32;;;;;;;15.95;12.02;;;;;;;21.72;58.69;93729.31;5051052;28;20674;-72
2023/07/03 08:04:58;;;;;;;15.48;11.88;;;;;;;21.77;57.42;93724.31;5048884;28;20033;-72
2023/07/03 08:07:23;;;;;;;15.93;11.30;;;;;;;21.91;57.50;93742.47;5050781;28;20564;-72
2023/07/03 08:09:48;;;;;;;18.42;12.50;;;;;;;22.02;56.41;93737.06;5050448;28;20124;-72
2023/07/03 08:12:14;;;;;;;15.43;12.30;;;;;;;22.13;55.09;93741.34;5052391;28;20041;-73
2023/07/03 08:14:39;;;;;;;12.65;10.55;;;;;;;22.16;54.23;93728.94;5052414;28;20046;-73
2023/07/03 08:17:05;;;;;;;17.50;10.88;;;;;;;22.02;55.47;93743.25;5054800;28;20202;-72
2023/07/03 08:19:31;;;;;;;14.55;10.40;;;;;;;22.09;55.72;93716.19;5053031;28;20024;-73
2023/07/03 08:21:56;;;;;;;12.45;9.90;;;;;;;22.40;53.26;93739.00;5050921;28;20492;-73
2023/07/03 08:24:22;;;;;;;10.70;9.32;;;;;;;22.48;54.18;93745.19;5053491;28;20036;-72
2023/07/03 08:26:49;;;;;;;11.25;9.13;;;;;;;22.41;52.90;93747.91;5053445;28;20064;-72
2023/07/03 08:29:15;;;;;;;10.68;9.38;;;;;;;22.42;53.09;93744.81;5054640;28;20068;-72
2023/07/03 08:31:40;;;;;;;20.88;9.82;;;;;;;22.26;54.17;93753.34;5053094;28;20076;-72
2023/07/03 08:34:07;;;;;;;11.23;9.63;;;;;;;22.45;53.62;93743.25;5053424;28;20390;-73
2023/07/03 08:36:32;;;;;;;11.45;10.18;;;;;;;22.49;54.63;93742.09;5049968;28;20591;-72
2023/07/03 08:38:58;;;;;;;14.68;10.20;;;;;;;22.52;53.87;93754.09;5052667;28;20120;-73
2023/07/03 08:41:23;;;;;;;14.40;9.95;;;;;;;22.45;51.77;93745.97;5055561;28;21042;-73
2023/07/03 08:43:55;;;;;;;14.18;9.45;;;;;;;22.61;52.76;93751.75;5051699;28;20032;-72
2023/07/03 08:46:26;;;;;;;10.75;9.65;;;;;;;22.64;52.46;93742.81;5054915;28;20532;-72
2023/07/03 08:48:56;;;;;;;12.38;9.95;;;;;;;22.81;52.54;93749.38;5051616;28;20033;-72
2023/07/03 08:51:24;;;;;;;12.27;9.27;;;;;;;22.84;52.40;93754.78;5053623;28;20500;-73
2023/07/03 08:53:56;;;;;;;10.95;9.75;;;;;;;22.86;52.69;93736.22;5051443;28;20068;-72
2023/07/03 08:56:26;;;;;;;9.20;8.18;;;;;;;22.85;52.00;93750.13;5053700;28;20036;-73
2023/07/03 08:58:54;;;;;;;12.60;8.90;;;;;;;22.82;50.41;93740.88;5053781;28;20021;-72
2023/07/03 09:01:28;;;;;;;11.52;8.95;;;;;;;22.97;49.93;93752.47;5053447;28;20036;-73
2023/07/03 09:04:05;;;;;;;12.25;8.63;;;;;;;22.84;49.92;93754.78;5054011;28;20067;-72
2023/07/03 09:06:52;;;;;;;8.48;7.68;;;;;;;22.81;49.63;93744.72;5052614;28;20044;-73
2023/07/03 09:09:23;;;;;;;10.75;7.78;;;;;;;22.96;51.25;93748.19;5054029;28;20548;-73
2023/07/03 09:11:55;;;;;;;9.23;8.05;;;;;;;22.87;50.18;93753.28;5054091;28;20066;-72
2023/07/03 09:14:27;;;;;;;10.80;8.65;;;;;;;22.78;49.93;93753.63;5054296;28;20495;-72
2023/07/03 09:16:52;;;;;;;17.17;9.20;;;;;;;22.81;50.91;93752.88;5052119;28;20059;-73
2023/07/03 09:19:25;;;;;;;10.50;8.55;;;;;;;22.68;50.37;93744.38;5052115;28;20025;-73
2023/07/03 09:21:53;;;;;;;9.57;8.57;;;;;;;22.83;50.07;93744.34;5053614;28;20775;-72
2023/07/03 09:24:27;;;;;;;13.45;9.98;;;;;;;22.94;50.06;93754.00;5050764;28;20095;-72
2023/07/03 09:27:02;;;;;;;13.07;9.65;;;;;;;22.90;50.21;93755.19;5052198;28;20084;-72
2023/07/03 09:29:31;;;;;;;11.38;8.18;;;;;;;22.60;48.73;93755.63;5053462;28;20080;-72
2023/07/03 09:31:56;;;;;;;18.75;9.82;;;;;;;22.63;49.46;93744.00;5050400;28;20147;-72
2023/07/03 09:34:21;;;;;;;10.75;9.38;;;;;;;22.84;49.15;93752.06;5053123;28;20423;-72
2023/07/03 09:37:01;;;;;;;10.07;8.50;;;;;;;22.95;48.91;93755.56;5051487;28;20043;-73
2023/07/03 09:39:27;;;;;;;11.35;8.20;;;;;;;22.86;47.61;93722.66;5053009;28;20059;-72
2023/07/03 09:42:03;;;;;;;11.10;8.13;;;;;;;23.02;48.72;93746.63;5052040;28;20397;-72
2023/07/03 09:44:29;;;;;;;8.88;7.97;;;;;;;23.01;47.58;93756.72;5051373;28;20043;-72
2023/07/03 09:46:56;;;;;;;8.57;7.45;;;;;;;23.00;47.99;93749.72;5052754;28;20240;-73
2023/07/03 09:49:28;;;;;;;8.80;7.97;;;;;;;23.08;47.90;93745.81;5055267;28;20052;-72
2023/07/03 09:51:56;;;;;;;12.13;7.95;;;;;;;23.13;48.39;93748.13;5050770;28;20040;-73
2023/07/03 09:54:26;;;;;;;13.25;8.88;;;;;;;23.17;48.19;93740.75;5051775;28;20082;-72
2023/07/03 09:56:51;;;;;;;9.43;8.45;;;;;;;23.21;49.23;93715.56;5052536;28;20028;-73
2023/07/03 09:59:20;;;;;;;9.07;8.15;;;;;;;23.36;49.54;93723.22;5050796;28;20397;-72
2023/07/03 10:01:47;;;;;;;11.75;9.25;;;;;;;23.64;48.45;93749.44;5051212;28;20111;-73
2023/07/03 10:04:16;;;;;;;10.10;8.70;;;;;;;23.54;45.54;93751.06;5054061;28;20075;-72
2023/07/03 10:07:00;;;;;;;11.27;8.85;;;;;;;23.52;46.33;93752.59;5052082;28;20021;-73
2023/07/03 10:09:33;;;;;;;15.57;8.93;;;;;;;23.42;47.40;93745.28;5053223;28;20042;-72
2023/07/03 10:12:09;;;;;;;11.60;8.30;;;;;;;23.56;46.35;93746.00;5052158;28;20078;-72
2023/07/03 10:14:53;;;;;;;10.27;8.25;;;;;;;23.61;47.02;93742.13;5050466;28;20567;-73
2023/07/03 10:17:28;;;;;;;9.53;8.13;;;;;;;23.63;46.48;93745.19;5067898;28;21017;-73
2023/07/03 10:19:58;;;;;;;8.68;7.78;;;;;;;23.64;46.64;93738.59;5050818;28;20550;-73
2023/07/03 10:22:25;;;;;;;10.27;7.97;;;;;;;23.73;47.40;93730.78;5045857;28;20025;-72
2023/07/03 10:24:55;;;;;;;8.77;7.88;;;;;;;23.81;48.05;93740.41;5050583;28;20427;-73
2023/07/03 10:27:24;;;;;;;9.52;7.90;;;;;;;23.90;48.63;93745.41;5049287;28;20036;-72
2023/07/03 10:29:53;;;;;;;9.93;8.40;;;;;;;23.89;48.14;93733.00;5053354;28;20233;-73
2023/07/03 10:32:20;;;;;;;9.85;7.40;;;;;;;24.03;48.58;93738.31;5049801;28;20591;-72
2023/07/03 10:34:49;;;;;;;8.05;6.43;;;;;;;23.93;47.36;93728.31;5051591;28;20032;-73
2023/07/03 10:37:18;;;;;;;8.55;7.50;;;;;;;23.85;46.95;93738.47;5051067;28;20519;-73
2023/07/03 10:39:50;;;;;;;10.20;7.93;;;;;;;23.83;47.25;93735.34;5052580;28;20570;-73
2023/07/03 10:42:41;;;;;;;9.15;7.75;;;;;;;23.84;47.32;93730.72;5049711;28;20040;-72
2023/07/03 10:45:12;;;;;;;9.25;7.55;;;;;;;23.95;48.37;93728.69;5051280;28;20484;-73
2023/07/03 10:47:54;;;;;;;9.65;7.65;;;;;;;23.92;47.18;93716.66;5051105;28;20119;-72
2023/07/03 10:50:27;;;;;;;9.40;7.60;;;;;;;23.93;47.24;93712.78;5050139;28;20036;-73
2023/07/03 10:53:18;;;;;;;10.80;7.38;;;;;;;24.14;45.73;93733.59;5049595;28;20032;-72
2023/07/03 10:55:59;;;;;;;11.38;7.55;;;;;;;24.11;44.17;93718.09;5050559;28;20116;-73
2023/07/03 10:58:40;;;;;;;10.57;7.93;;;;;;;24.23;44.96;93728.47;5051788;28;20020;-73
2023/07/03 11:01:31;;;;;;;12.07;7.93;;;;;;;24.23;45.50;93723.03;5050063;28;20048;-73
2023/07/03 11:04:08;;;;;;;8.57;7.68;;;;;;;23.95;45.91;93688.69;5051513;28;20041;-72
2023/07/03 11:06:52;;;;;;;8.95;6.85;;;;;;;24.13;44.35;93717.69;5051569;28;20423;-72
2023/07/03 11:09:48;;;;;;;8.20;7.07;;;;;;;24.13;45.43;93695.97;5050988;28;20028;-73
2023/07/03 11:12:32;;;;;;;8.45;6.90;;;;;;;24.24;45.96;93704.81;5052072;28;20578;-73
2023/07/03 11:15:27;;;;;;;7.40;6.57;;;;;;;24.28;42.48;93730.75;5049413;28;20044;-73
2023/07/03 11:18:17;;;;;;;7.57;6.60;;;;;;;24.36;42.70;93728.75;5049525;28;20433;-73
2023/07/03 11:21:02;;;;;;;7.30;6.40;;;;;;;24.38;43.10;93710.88;5051083;28;20573;-73
2023/07/03 11:23:49;;;;;;;7.72;6.10;;;;;;;24.46;43.64;93722.44;5051092;28;20054;-72